Terminal Aerodrome Forecast
Issued by NWS

Home | Current Version | Previous Version | Text Only | Print | Product List | Glossary On
Versions: 1 2 3 4 5 6 7 8 9 10 11 12 13
000
FTUS46 KEKA 290538
TAFCEC
TAF
KCEC 290538Z 2906/3006 02005KT P6SM SCT025 BKN040
      TEMPO 2915/2918 6SM -DZ BR SCT015 BKN025
     FM291800 35006KT P6SM SCT015 BKN025 OVC050
     FM292100 32011KT 4SM -SHRA BR OVC015
     FM300000 32013KT P6SM VCSH SCT015 OVC050=

USA.gov is the U.S. government's official web portal to all federal, state and local government web resources and services.